sensor_id;sensor_type;location;lat;lon;timestamp;pressure;altitude;pressure_sealevel;temperature;humidity
25650;BME280;13505;45.196;5.696;2023-03-23T05:04:40;98931.66;;;13.71;61.52
25650;BME280;13505;45.196;5.696;2023-03-23T05:09:31;98933.34;;;13.72;61.25
25650;BME280;13505;45.196;5.696;2023-03-23T05:14:22;98929.97;;;13.70;60.95
25650;BME280;13505;45.196;5.696;2023-03-23T05:19:12;98927.78;;;13.62;61.57
25650;BME280;13505;45.196;5.696;2023-03-23T05:24:03;98926.84;;;13.63;60.86
25650;BME280;13505;45.196;5.696;2023-03-23T05:28:53;98928.75;;;13.61;60.98
25650;BME280;13505;45.196;5.696;2023-03-23T05:33:44;98924.06;;;13.64;60.81
25650;BME280;13505;45.196;5.696;2023-03-23T05:38:35;98926.63;;;13.66;60.81
25650;BME280;13505;45.196;5.696;2023-03-23T05:43:26;98935.53;;;13.65;60.68
25650;BME280;13505;45.196;5.696;2023-03-23T05:48:17;98933.84;;;13.64;60.90
25650;BME280;13505;45.196;5.696;2023-03-23T05:53:07;98937.31;;;13.64;61.33
25650;BME280;13505;45.196;5.696;2023-03-23T05:57:58;98941.72;;;13.65;61.39
25650;BME280;13505;45.196;5.696;2023-03-23T06:02:49;98954.00;;;13.66;61.23
25650;BME280;13505;45.196;5.696;2023-03-23T06:07:41;98956.53;;;13.68;61.06
25650;BME280;13505;45.196;5.696;2023-03-23T06:12:31;98968.09;;;13.67;60.90
25650;BME280;13505;45.196;5.696;2023-03-23T06:17:22;98966.03;;;13.72;60.67
25650;BME280;13505;45.196;5.696;2023-03-23T06:22:13;98970.25;;;13.75;60.39
25650;BME280;13505;45.196;5.696;2023-03-23T06:27:03;98966.84;;;13.73;60.14
25650;BME280;13505;45.196;5.696;2023-03-23T06:31:56;98970.25;;;13.75;60.04
25650;BME280;13505;45.196;5.696;2023-03-23T06:36:47;98982.28;;;13.80;59.67
25650;BME280;13505;45.196;5.696;2023-03-23T06:41:38;98973.00;;;13.88;59.84
25650;BME280;13505;45.196;5.696;2023-03-23T06:46:28;98968.28;;;13.93;59.01
25650;BME280;13505;45.196;5.696;2023-03-23T06:51:19;98964.94;;;14.04;59.27
25650;BME280;13505;45.196;5.696;2023-03-23T06:56:10;98971.72;;;14.22;58.29
25650;BME280;13505;45.196;5.696;2023-03-23T07:01:01;98971.19;;;14.45;57.06
25650;BME280;13505;45.196;5.696;2023-03-23T07:05:52;98970.16;;;14.60;56.45
25650;BME280;13505;45.196;5.696;2023-03-23T07:10:42;98960.06;;;14.65;55.46
25650;BME280;13505;45.196;5.696;2023-03-23T07:15:34;98964.81;;;14.75;54.92
25650;BME280;13505;45.196;5.696;2023-03-23T07:20:25;98965.28;;;14.82;54.75
25650;BME280;13505;45.196;5.696;2023-03-23T07:25:17;98966.97;;;14.83;54.82
25650;BME280;13505;45.196;5.696;2023-03-23T07:30:07;98979.81;;;14.89;54.37
25650;BME280;13505;45.196;5.696;2023-03-23T07:34:58;98969.44;;;14.99;53.74
25650;BME280;13505;45.196;5.696;2023-03-23T07:39:48;98978.25;;;14.99;53.57
25650;BME280;13505;45.196;5.696;2023-03-23T07:44:39;98988.59;;;15.17;53.22
25650;BME280;13505;45.196;5.696;2023-03-23T07:49:29;98987.41;;;15.21;53.23
25650;BME280;13505;45.196;5.696;2023-03-23T07:54:21;98994.41;;;15.22;52.95
25650;BME280;13505;45.196;5.696;2023-03-23T07:59:12;98996.78;;;15.14;52.63
25650;BME280;13505;45.196;5.696;2023-03-23T08:04:02;98994.44;;;15.09;52.86
25650;BME280;13505;45.196;5.696;2023-03-23T08:08:53;98994.31;;;15.11;52.70
25650;BME280;13505;45.196;5.696;2023-03-23T08:13:45;98991.53;;;14.99;53.16
25650;BME280;13505;45.196;5.696;2023-03-23T08:18:36;98994.41;;;14.96;53.52
25650;BME280;13505;45.196;5.696;2023-03-23T08:23:27;98991.66;;;14.98;53.61
25650;BME280;13505;45.196;5.696;2023-03-23T08:28:18;98977.59;;;14.96;54.22
25650;BME280;13505;45.196;5.696;2023-03-23T08:33:09;98976.25;;;15.16;53.81
25650;BME280;13505;45.196;5.696;2023-03-23T08:38:00;98987.34;;;15.35;53.55
25650;BME280;13505;45.196;5.696;2023-03-23T08:42:52;98986.78;;;15.43;53.55
25650;BME280;13505;45.196;5.696;2023-03-23T08:47:43;98997.94;;;15.61;53.59
25650;BME280;13505;45.196;5.696;2023-03-23T08:52:34;99009.84;;;15.82;53.72
25650;BME280;13505;45.196;5.696;2023-03-23T08:57:25;99012.31;;;15.85;54.63
25650;BME280;13505;45.196;5.696;2023-03-23T09:02:16;99019.72;;;15.80;55.06
25650;BME280;13505;45.196;5.696;2023-03-23T09:07:10;99014.84;;;15.60;56.04
25650;BME280;13505;45.196;5.696;2023-03-23T09:12:02;99023.78;;;15.46;56.69
25650;BME280;13505;45.196;5.696;2023-03-23T09:16:52;99032.19;;;15.40;57.13
25650;BME280;13505;45.196;5.696;2023-03-23T09:21:43;99039.94;;;15.30;57.58
25650;BME280;13505;45.196;5.696;2023-03-23T09:26:35;99041.84;;;15.28;57.83
25650;BME280;13505;45.196;5.696;2023-03-23T09:31:26;99041.59;;;15.18;58.31
25650;BME280;13505;45.196;5.696;2023-03-23T09:36:18;99040.56;;;15.34;58.11
25650;BME280;13505;45.196;5.696;2023-03-23T09:51:42;99026.22;;;16.01;56.44
25650;BME280;13505;45.196;5.696;2023-03-23T09:56:34;99042.72;;;16.07;56.81
25650;BME280;13505;45.196;5.696;2023-03-23T10:01:31;99043.47;;;16.09;57.29
25650;BME280;13505;45.196;5.696;2023-03-23T10:06:23;99042.97;;;16.28;56.85
25650;BME280;13505;45.196;5.696;2023-03-23T10:16:23;99056.03;;;16.44;56.30
25650;BME280;13505;45.196;5.696;2023-03-23T10:21:17;99068.34;;;16.58;56.23
25650;BME280;13505;45.196;5.696;2023-03-23T10:26:21;99058.84;;;16.67;56.15
25650;BME280;13505;45.196;5.696;2023-03-23T10:31:20;99070.75;;;16.74;56.53
25650;BME280;13505;45.196;5.696;2023-03-23T10:36:59;99066.03;;;16.78;56.55
25650;BME280;13505;45.196;5.696;2023-03-23T10:41:51;99049.88;;;16.92;56.91
25650;BME280;13505;45.196;5.696;2023-03-23T10:47:00;99054.78;;;17.23;56.13
25650;BME280;13505;45.196;5.696;2023-03-23T10:52:26;99048.59;;;17.34;55.31
25650;BME280;13505;45.196;5.696;2023-03-23T10:57:22;99048.41;;;17.48;55.33
25650;BME280;13505;45.196;5.696;2023-03-23T11:02:17;99043.72;;;17.63;54.63
25650;BME280;13505;45.196;5.696;2023-03-23T11:07:17;99041.41;;;17.70;53.64
25650;BME280;13505;45.196;5.696;2023-03-23T11:12:17;99048.94;;;17.76;54.17
25650;BME280;13505;45.196;5.696;2023-03-23T11:17:21;99041.91;;;17.86;53.82
25650;BME280;13505;45.196;5.696;2023-03-23T11:22:27;99021.69;;;18.07;53.93
25650;BME280;13505;45.196;5.696;2023-03-23T11:27:18;99019.00;;;18.30;53.11
25650;BME280;13505;45.196;5.696;2023-03-23T11:32:11;99007.34;;;18.63;52.32
25650;BME280;13505;45.196;5.696;2023-03-23T11:37:14;99010.81;;;18.87;52.05
25650;BME280;13505;45.196;5.696;2023-03-23T11:42:23;99012.63;;;19.40;50.97
25650;BME280;13505;45.196;5.696;2023-03-23T11:47:34;98997.44;;;19.93;50.40
25650;BME280;13505;45.196;5.696;2023-03-23T11:52:40;98998.06;;;20.16;48.72
25650;BME280;13505;45.196;5.696;2023-03-23T11:57:31;98990.88;;;19.86;49.26
25650;BME280;13505;45.196;5.696;2023-03-23T12:28:00;98953.50;;;19.33;50.04
25650;BME280;13505;45.196;5.696;2023-03-23T12:33:33;98947.09;;;19.24;50.91
25650;BME280;13505;45.196;5.696;2023-03-23T12:43:20;98949.53;;;18.74;52.87
25650;BME280;13505;45.196;5.696;2023-03-23T12:48:24;98931.53;;;18.54;53.42
25650;BME280;13505;45.196;5.696;2023-03-23T12:53:28;98936.91;;;18.43;54.05
25650;BME280;13505;45.196;5.696;2023-03-23T12:58:24;98922.78;;;18.20;54.80
25650;BME280;13505;45.196;5.696;2023-03-23T13:03:28;98920.41;;;17.94;56.00
25650;BME280;13505;45.196;5.696;2023-03-23T13:08:31;98909.59;;;17.95;55.77
25650;BME280;13505;45.196;5.696;2023-03-23T13:13:39;98914.94;;;17.72;56.55
25650;BME280;13505;45.196;5.696;2023-03-23T13:18:35;98909.63;;;17.61;57.22
25650;BME280;13505;45.196;5.696;2023-03-23T13:23:38;98912.56;;;17.58;58.25
25650;BME280;13505;45.196;5.696;2023-03-23T13:28:47;98907.13;;;17.48;58.23
25650;BME280;13505;45.196;5.696;2023-03-23T13:33:38;98893.28;;;17.43;58.33
25650;BME280;13505;45.196;5.696;2023-03-23T13:38:29;98884.94;;;17.36;58.44
25650;BME280;13505;45.196;5.696;2023-03-23T13:43:33;98878.72;;;17.36;58.21
25650;BME280;13505;45.196;5.696;2023-03-23T13:48:25;98883.47;;;17.32;58.27
25650;BME280;13505;45.196;5.696;2023-03-23T13:58:25;98879.34;;;17.28;59.49
25650;BME280;13505;45.196;5.696;2023-03-23T14:03:35;98862.53;;;17.27;59.34
25650;BME280;13505;45.196;5.696;2023-03-23T14:13:28;98866.53;;;17.33;59.52
25650;BME280;13505;45.196;5.696;2023-03-23T14:18:21;98857.31;;;17.37;58.88
25650;BME280;13505;45.196;5.696;2023-03-23T14:23:17;98851.72;;;17.29;59.35
25650;BME280;13505;45.196;5.696;2023-03-23T14:28:19;98846.41;;;17.18;59.65
25650;BME280;13505;45.196;5.696;2023-03-23T14:33:12;98850.53;;;17.22;59.13
25650;BME280;13505;45.196;5.696;2023-03-23T14:38:03;98852.34;;;17.21;59.51
25650;BME280;13505;45.196;5.696;2023-03-23T14:42:54;98863.72;;;17.12;60.27
25650;BME280;13505;45.196;5.696;2023-03-23T14:47:48;98855.09;;;17.08;60.71
25650;BME280;13505;45.196;5.696;2023-03-23T14:52:40;98857.56;;;17.11;60.88
25650;BME280;13505;45.196;5.696;2023-03-23T14:57:30;98854.88;;;17.11;60.76
25650;BME280;13505;45.196;5.696;2023-03-23T15:02:29;98858.53;;;17.10;61.70
25650;BME280;13505;45.196;5.696;2023-03-23T15:07:29;98855.09;;;17.08;61.69
25650;BME280;13505;45.196;5.696;2023-03-23T15:12:23;98860.22;;;17.11;61.33
25650;BME280;13505;45.196;5.696;2023-03-23T15:17:33;98862.88;;;17.11;62.34
25650;BME280;13505;45.196;5.696;2023-03-23T15:27:23;98858.75;;;17.07;62.20
25650;BME280;13505;45.196;5.696;2023-03-23T15:32:21;98856.94;;;17.08;62.64
25650;BME280;13505;45.196;5.696;2023-03-23T15:37:26;98860.94;;;17.02;62.64
25650;BME280;13505;45.196;5.696;2023-03-23T15:47:19;98834.47;;;16.99;63.27
25650;BME280;13505;45.196;5.696;2023-03-23T15:52:12;98837.56;;;17.06;63.01
25650;BME280;13505;45.196;5.696;2023-03-23T15:57:03;98840.09;;;17.07;63.14
25650;BME280;13505;45.196;5.696;2023-03-23T16:01:54;98835.72;;;17.06;63.31
25650;BME280;13505;45.196;5.696;2023-03-23T16:06:45;98835.47;;;17.09;62.77
25650;BME280;13505;45.196;5.696;2023-03-23T16:11:35;98834.16;;;17.15;62.50
25650;BME280;13505;45.196;5.696;2023-03-23T16:16:38;98831.13;;;17.20;62.71
25650;BME280;13505;45.196;5.696;2023-03-23T16:21:28;98822.31;;;17.19;62.60
25650;BME280;13505;45.196;5.696;2023-03-23T16:26:19;98818.66;;;17.20;62.57
25650;BME280;13505;45.196;5.696;2023-03-23T16:31:10;98823.75;;;17.23;62.20
25650;BME280;13505;45.196;5.696;2023-03-23T16:36:00;98821.78;;;17.25;62.50
25650;BME280;13505;45.196;5.696;2023-03-23T16:40:51;98815.75;;;17.23;62.26
25650;BME280;13505;45.196;5.696;2023-03-23T16:45:43;98820.72;;;17.16;63.32
25650;BME280;13505;45.196;5.696;2023-03-23T16:50:34;98814.16;;;17.09;63.62
25650;BME280;13505;45.196;5.696;2023-03-23T16:55:25;98814.53;;;17.05;64.47
25650;BME280;13505;45.196;5.696;2023-03-23T17:00:17;98810.78;;;17.07;63.99
25650;BME280;13505;45.196;5.696;2023-03-23T17:05:12;98812.44;;;16.97;64.76
25650;BME280;13505;45.196;5.696;2023-03-23T17:10:04;98819.81;;;16.93;65.23
25650;BME280;13505;45.196;5.696;2023-03-23T17:14:55;98832.56;;;16.90;64.82
25650;BME280;13505;45.196;5.696;2023-03-23T17:19:46;98831.09;;;16.85;64.86
25650;BME280;13505;45.196;5.696;2023-03-23T17:24:36;98850.22;;;16.79;65.65
25650;BME280;13505;45.196;5.696;2023-03-23T17:29:26;98839.56;;;16.68;65.88
25650;BME280;13505;45.196;5.696;2023-03-23T17:34:17;98851.88;;;16.57;66.46
25650;BME280;13505;45.196;5.696;2023-03-23T17:39:08;98848.06;;;16.49;66.98
25650;BME280;13505;45.196;5.696;2023-03-23T17:43:58;98849.53;;;16.41;66.84
25650;BME280;13505;45.196;5.696;2023-03-23T17:48:48;98844.66;;;16.35;67.02
25650;BME280;13505;45.196;5.696;2023-03-23T17:53:39;98848.00;;;16.26;67.73
25650;BME280;13505;45.196;5.696;2023-03-23T17:58:30;98851.34;;;16.16;67.88
25650;BME280;13505;45.196;5.696;2023-03-23T18:03:21;98847.56;;;16.08;68.21
25650;BME280;13505;45.196;5.696;2023-03-23T18:08:12;98849.31;;;15.96;68.91
25650;BME280;13505;45.196;5.696;2023-03-23T18:13:04;98857.44;;;15.81;69.19
25650;BME280;13505;45.196;5.696;2023-03-23T18:17:55;98858.00;;;15.73;70.09
25650;BME280;13505;45.196;5.696;2023-03-23T18:22:47;98855.88;;;15.66;70.05
25650;BME280;13505;45.196;5.696;2023-03-23T18:27:37;98863.91;;;15.53;70.53
25650;BME280;13505;45.196;5.696;2023-03-23T18:32:28;98866.47;;;15.41;71.39
25650;BME280;13505;45.196;5.696;2023-03-23T18:37:19;98876.25;;;15.28;72.56
25650;BME280;13505;45.196;5.696;2023-03-23T18:42:09;98868.19;;;15.16;72.40
25650;BME280;13505;45.196;5.696;2023-03-23T18:47:00;98862.03;;;15.03;73.47
25650;BME280;13505;45.196;5.696;2023-03-23T18:51:50;98860.97;;;14.92;73.59
25650;BME280;13505;45.196;5.696;2023-03-23T18:56:40;98866.69;;;14.86;74.03
25650;BME280;13505;45.196;5.696;2023-03-23T19:01:31;98870.00;;;14.77;74.69
25650;BME280;13505;45.196;5.696;2023-03-23T19:06:25;98869.41;;;14.72;74.79
25650;BME280;13505;45.196;5.696;2023-03-23T19:11:17;98862.09;;;14.62;74.63
25650;BME280;13505;45.196;5.696;2023-03-23T19:16:08;98862.31;;;14.59;75.02
25650;BME280;13505;45.196;5.696;2023-03-23T19:20:58;98862.22;;;14.61;74.88
25650;BME280;13505;45.196;5.696;2023-03-23T19:25:51;98866.31;;;14.52;74.41
25650;BME280;13505;45.196;5.696;2023-03-23T19:30:48;98862.91;;;14.50;75.63
25650;BME280;13505;45.196;5.696;2023-03-23T19:35:39;98863.97;;;14.47;75.37
25650;BME280;13505;45.196;5.696;2023-03-23T19:40:30;98857.91;;;14.45;76.30
25650;BME280;13505;45.196;5.696;2023-03-23T19:45:20;98867.56;;;14.46;76.56
25650;BME280;13505;45.196;5.696;2023-03-23T19:50:10;98863.75;;;14.37;76.93
25650;BME280;13505;45.196;5.696;2023-03-23T19:55:01;98860.88;;;14.41;76.53
25650;BME280;13505;45.196;5.696;2023-03-23T19:59:52;98863.53;;;14.41;75.90
25650;BME280;13505;45.196;5.696;2023-03-23T20:04:42;98862.69;;;14.40;75.75
25650;BME280;13505;45.196;5.696;2023-03-23T20:09:33;98867.53;;;14.33;75.37
25650;BME280;13505;45.196;5.696;2023-03-23T20:14:24;98863.19;;;14.32;75.59
25650;BME280;13505;45.196;5.696;2023-03-23T20:19:15;98871.78;;;14.36;75.77
25650;BME280;13505;45.196;5.696;2023-03-23T20:24:05;98854.84;;;14.38;76.06
25650;BME280;13505;45.196;5.696;2023-03-23T20:28:57;98857.19;;;14.43;76.29
25650;BME280;13505;45.196;5.696;2023-03-23T20:33:48;98867.78;;;14.43;75.63
25650;BME280;13505;45.196;5.696;2023-03-23T20:38:39;98866.19;;;14.41;76.49
25650;BME280;13505;45.196;5.696;2023-03-23T20:43:32;98858.22;;;14.41;77.79
25650;BME280;13505;45.196;5.696;2023-03-23T20:48:24;98859.75;;;14.45;77.54
25650;BME280;13505;45.196;5.696;2023-03-23T20:53:16;98864.41;;;14.41;78.05
25650;BME280;13505;45.196;5.696;2023-03-23T20:58:07;98856.53;;;14.40;77.58
25650;BME280;13505;45.196;5.696;2023-03-23T21:02:57;98855.25;;;14.45;78.20
25650;BME280;13505;45.196;5.696;2023-03-23T21:07:48;98856.97;;;14.46;78.08
25650;BME280;13505;45.196;5.696;2023-03-23T21:12:40;98853.25;;;14.49;78.49
25650;BME280;13505;45.196;5.696;2023-03-23T21:17:30;98857.41;;;14.40;78.40
25650;BME280;13505;45.196;5.696;2023-03-23T21:22:21;98858.31;;;14.39;78.79
25650;BME280;13505;45.196;5.696;2023-03-23T21:27:11;98853.13;;;14.37;79.53
25650;BME280;13505;45.196;5.696;2023-03-23T21:32:02;98855.47;;;14.42;79.13
25650;BME280;13505;45.196;5.696;2023-03-23T21:36:52;98849.22;;;14.43;78.69
25650;BME280;13505;45.196;5.696;2023-03-23T21:41:43;98835.31;;;14.40;78.90
25650;BME280;13505;45.196;5.696;2023-03-23T21:46:34;98853.00;;;14.39;79.33
25650;BME280;13505;45.196;5.696;2023-03-23T21:51:26;98853.22;;;14.36;78.85
25650;BME280;13505;45.196;5.696;2023-03-23T21:56:17;98850.34;;;14.39;78.75
25650;BME280;13505;45.196;5.696;2023-03-23T22:01:08;98839.88;;;14.37;78.51
25650;BME280;13505;45.196;5.696;2023-03-23T22:06:09;98840.91;;;14.35;78.17
25650;BME280;13505;45.196;5.696;2023-03-23T22:11:04;98842.41;;;14.39;77.99
25650;BME280;13505;45.196;5.696;2023-03-23T22:15:56;98834.56;;;14.37;77.71
25650;BME280;13505;45.196;5.696;2023-03-23T22:20:47;98827.56;;;14.36;77.74
25650;BME280;13505;45.196;5.696;2023-03-23T22:25:38;98833.16;;;14.32;77.75
25650;BME280;13505;45.196;5.696;2023-03-23T22:30:30;98838.25;;;14.35;77.42
25650;BME280;13505;45.196;5.696;2023-03-23T22:35:22;98835.59;;;14.35;77.27
25650;BME280;13505;45.196;5.696;2023-03-23T22:40:12;98843.88;;;14.30;78.08
25650;BME280;13505;45.196;5.696;2023-03-23T22:45:03;98832.63;;;14.27;77.42
25650;BME280;13505;45.196;5.696;2023-03-23T22:49:54;98816.91;;;14.23;77.33
25650;BME280;13505;45.196;5.696;2023-03-23T22:54:44;98848.75;;;14.23;77.24
25650;BME280;13505;45.196;5.696;2023-03-23T22:59:35;98833.69;;;14.24;76.77
